createdAt,value
2023-01-17T00:00:24.731Z,0.36
2023-01-17T00:02:55.065Z,0.33
2023-01-17T00:05:48.534Z,0.32
2023-01-17T00:08:34.769Z,0.31
2023-01-17T00:11:05.285Z,0.29
2023-01-17T00:13:35.751Z,0.25
2023-01-17T00:16:07.119Z,0.24
2023-01-17T00:18:37.441Z,0.26
2023-01-17T00:21:25.618Z,0.24
2023-01-17T00:24:13.691Z,0.28
2023-01-17T00:26:58.006Z,0.29
2023-01-17T00:29:27.337Z,0.30
2023-01-17T00:31:56.641Z,0.32
2023-01-17T00:34:25.881Z,0.34
2023-01-17T00:36:55.177Z,0.31
2023-01-17T00:39:24.414Z,0.27
2023-01-17T00:41:53.765Z,0.22
2023-01-17T00:44:41.465Z,0.22
2023-01-17T00:47:29.567Z,0.23
2023-01-17T00:50:17.976Z,0.23
2023-01-17T00:53:05.809Z,0.21
2023-01-17T00:55:54.517Z,0.19
2023-01-17T00:58:42.412Z,0.21
2023-01-17T01:01:30.395Z,0.22
2023-01-17T01:04:18.814Z,0.22
2023-01-17T01:07:07.009Z,0.19
2023-01-17T01:09:54.914Z,0.16
2023-01-17T01:12:43.125Z,0.15
2023-01-17T01:15:31.450Z,0.13
2023-01-17T01:18:25.329Z,0.09
2023-01-17T01:21:13.822Z,0.01
2023-01-17T01:24:02.227Z,0.05
2023-01-17T01:26:50.118Z,0.07
2023-01-17T01:29:38.353Z,0.08
2023-01-17T01:32:26.567Z,0.06
2023-01-17T01:34:56.946Z,0.02
2023-01-17T01:37:27.289Z,-0.03
2023-01-17T01:39:57.635Z,-0.07
2023-01-17T01:42:27.991Z,-0.10
2023-01-17T01:44:58.409Z,-0.13
2023-01-17T01:47:32.164Z,-0.19
2023-01-17T01:50:04.050Z,-0.26
2023-01-17T01:52:36.229Z,-0.30
2023-01-17T01:55:11.816Z,-0.34
2023-01-17T01:57:43.638Z,-0.39
2023-01-17T02:00:18.154Z,-0.45
2023-01-17T02:02:50.943Z,-0.51
2023-01-17T02:05:23.697Z,-0.53
2023-01-17T02:07:56.123Z,-0.50
2023-01-17T02:10:26.412Z,-0.52
2023-01-17T02:12:57.660Z,-0.56
2023-01-17T02:15:32.866Z,-0.60
2023-01-17T02:18:10.741Z,-0.58
2023-01-17T02:20:58.639Z,-0.58
2023-01-17T02:24:11.899Z,-0.58
2023-01-17T02:26:53.820Z,-0.60
2023-01-17T02:29:55.769Z,-0.60
2023-01-17T02:32:33.206Z,-0.55
2023-01-17T02:35:08.645Z,-0.51
2023-01-17T02:37:45.122Z,-0.50
2023-01-17T02:40:18.019Z,-0.57
2023-01-17T02:42:48.085Z,-0.53
2023-01-17T02:45:20.161Z,-0.54
2023-01-17T02:47:50.475Z,-0.56
2023-01-17T02:50:23.586Z,-0.58
2023-01-17T02:53:01.152Z,-0.62
2023-01-17T02:55:40.235Z,-0.66
2023-01-17T02:58:19.262Z,-0.70
2023-01-17T03:00:58.823Z,-0.71
2023-01-17T03:03:33.892Z,-0.78
2023-01-17T03:06:11.596Z,-0.81
2023-01-17T03:08:44.789Z,-0.90
2023-01-17T03:11:16.380Z,-0.87
2023-01-17T03:13:46.711Z,-0.82
2023-01-17T03:16:21.017Z,-0.81
2023-01-17T03:18:51.393Z,-0.73
2023-01-17T03:21:22.117Z,-0.75
2023-01-17T03:23:52.694Z,-0.73
2023-01-17T03:26:22.988Z,-0.72
2023-01-17T03:28:53.350Z,-0.66
2023-01-17T03:31:23.687Z,-0.61
2023-01-17T03:33:54.005Z,-0.54
2023-01-17T03:36:24.358Z,-0.53
2023-01-17T03:38:54.704Z,-0.53
2023-01-17T03:41:25.067Z,-0.51
2023-01-17T03:43:55.350Z,-0.48
2023-01-17T03:46:27.433Z,-0.46
2023-01-17T03:48:57.869Z,-0.48
2023-01-17T03:51:28.332Z,-0.53
2023-01-17T03:53:58.882Z,-0.59
2023-01-17T03:56:29.195Z,-0.66
2023-01-17T03:58:59.709Z,-0.71
2023-01-17T04:01:30.224Z,-0.74
2023-01-17T04:04:00.624Z,-0.79
2023-01-17T04:06:30.917Z,-0.85
2023-01-17T04:09:01.256Z,-0.93
2023-01-17T04:11:31.522Z,-1.00
2023-01-17T04:14:01.862Z,-1.03
2023-01-17T04:16:33.272Z,-1.04
2023-01-17T04:19:03.573Z,-1.06
2023-01-17T04:21:33.880Z,-1.12
2023-01-17T04:24:04.282Z,-1.17
2023-01-17T04:26:34.640Z,-1.23
2023-01-17T04:29:05.155Z,-1.27
2023-01-17T04:31:35.513Z,-1.29
2023-01-17T04:34:06.046Z,-1.32
2023-01-17T04:36:36.447Z,-1.37
2023-01-17T04:39:07.384Z,-1.41
2023-01-17T04:41:37.740Z,-1.47
2023-01-17T04:44:08.111Z,-1.52
2023-01-17T04:46:38.443Z,-1.54
2023-01-17T04:49:08.947Z,-1.55
2023-01-17T04:51:39.276Z,-1.59
2023-01-17T04:54:09.661Z,-1.58
2023-01-17T04:56:39.964Z,-1.62
2023-01-17T04:59:10.403Z,-1.59
2023-01-17T05:01:40.762Z,-1.57
2023-01-17T05:04:11.128Z,-1.55
2023-01-17T05:06:41.407Z,-1.54
2023-01-17T05:09:11.731Z,-1.55
2023-01-17T05:11:42.061Z,-1.55
2023-01-17T05:14:13.516Z,-1.53
2023-01-17T05:16:43.845Z,-1.49
2023-01-17T05:19:14.728Z,-1.47
2023-01-17T05:21:44.999Z,-1.47
2023-01-17T05:24:15.401Z,-1.49
2023-01-17T05:26:45.793Z,-1.54
2023-01-17T05:29:16.198Z,-1.61
2023-01-17T05:31:46.553Z,-1.68
2023-01-17T05:34:17.348Z,-1.76
2023-01-17T05:36:47.609Z,-1.82
2023-01-17T05:39:18.320Z,-1.85
2023-01-17T05:41:48.721Z,-1.90
2023-01-17T05:44:19.088Z,-1.94
2023-01-17T05:46:49.369Z,-2.03
2023-01-17T05:49:19.659Z,-2.06
2023-01-17T05:51:49.974Z,-2.11
2023-01-17T05:54:20.375Z,-2.15
2023-01-17T05:56:50.641Z,-2.18
2023-01-17T05:59:35.919Z,-2.19
2023-01-17T06:02:06.686Z,-2.24
2023-01-17T06:04:37.150Z,-2.30
2023-01-17T06:07:07.498Z,-2.35
2023-01-17T06:09:37.975Z,-2.42
2023-01-17T06:12:08.999Z,-2.47
2023-01-17T06:14:39.458Z,-2.50
2023-01-17T06:17:09.775Z,-2.49
2023-01-17T06:19:40.151Z,-2.47
2023-01-17T06:22:10.566Z,-2.45
2023-01-17T06:24:40.911Z,-2.45
2023-01-17T06:27:12.257Z,-2.47
2023-01-17T06:29:42.629Z,-2.50
2023-01-17T06:32:14.183Z,-2.56
2023-01-17T06:34:44.737Z,-2.59
2023-01-17T06:37:15.077Z,-2.60
2023-01-17T06:39:45.757Z,-2.60
2023-01-17T06:42:16.149Z,-2.60
2023-01-17T06:44:46.521Z,-2.62
2023-01-17T06:47:16.839Z,-2.66
2023-01-17T06:49:47.177Z,-2.72
2023-01-17T06:52:17.575Z,-2.79
2023-01-17T06:54:47.962Z,-2.85
2023-01-17T06:57:18.264Z,-2.89
2023-01-17T06:59:48.615Z,-2.92
2023-01-17T07:02:19.062Z,-2.93
2023-01-17T07:04:49.429Z,-2.96
2023-01-17T07:07:19.732Z,-3.00
2023-01-17T07:09:50.169Z,-3.05
2023-01-17T07:12:20.493Z,-3.09
2023-01-17T07:14:50.842Z,-3.14
2023-01-17T07:17:21.164Z,-3.16
2023-01-17T07:19:51.544Z,-3.17
2023-01-17T07:22:21.876Z,-3.15
2023-01-17T07:24:53.588Z,-3.12
2023-01-17T07:27:23.869Z,-3.07
2023-01-17T07:29:54.465Z,-2.96
2023-01-17T07:32:26.549Z,-2.82
2023-01-17T07:34:58.287Z,-2.64
2023-01-17T07:37:28.731Z,-2.43
2023-01-17T07:40:01.102Z,-2.19
2023-01-17T07:42:31.429Z,-1.94
2023-01-17T07:45:02.307Z,-1.73
2023-01-17T07:47:33.938Z,-1.48
2023-01-17T07:50:04.717Z,-1.33
2023-01-17T07:52:35.086Z,-1.26
2023-01-17T07:55:06.260Z,-1.02
2023-01-17T07:57:36.685Z,-0.71
2023-01-17T08:00:09.823Z,-0.37
2023-01-17T08:02:43.103Z,-0.00
2023-01-17T08:05:13.545Z,0.33
2023-01-17T08:07:43.850Z,0.66
2023-01-17T08:10:18.038Z,0.99
2023-01-17T08:12:49.295Z,1.24
2023-01-17T08:15:20.444Z,1.38
2023-01-17T08:17:53.187Z,1.53
2023-01-17T08:20:25.033Z,1.62
2023-01-17T08:22:56.625Z,1.70
2023-01-17T08:25:27.728Z,1.74
2023-01-17T08:28:00.137Z,1.74
2023-01-17T08:30:30.721Z,1.68
2023-01-17T08:33:03.430Z,1.57
2023-01-17T08:35:36.044Z,1.45
2023-01-17T08:38:06.596Z,1.39
2023-01-17T08:40:37.193Z,1.41
2023-01-17T08:43:07.835Z,1.28
2023-01-17T08:45:38.235Z,1.18
2023-01-17T08:48:08.903Z,1.24
2023-01-17T08:50:39.495Z,1.39
2023-01-17T08:53:09.806Z,1.60
2023-01-17T08:55:41.077Z,1.76
2023-01-17T08:58:11.428Z,1.86
2023-01-17T09:00:41.918Z,1.95
2023-01-17T09:03:14.663Z,2.12
2023-01-17T09:05:45.078Z,2.25
2023-01-17T09:08:15.428Z,2.31
2023-01-17T09:10:45.983Z,2.42
2023-01-17T09:13:16.266Z,2.43
2023-01-17T09:15:46.663Z,2.65
2023-01-17T09:18:17.097Z,2.96
2023-01-17T09:20:47.512Z,3.31
2023-01-17T09:23:17.845Z,3.57
2023-01-17T09:25:54.514Z,3.83
2023-01-17T09:28:25.277Z,4.36
2023-01-17T09:30:56.119Z,4.90
2023-01-17T09:33:26.484Z,5.41
2023-01-17T09:35:56.789Z,6.00
2023-01-17T09:38:27.106Z,6.57
2023-01-17T09:40:57.438Z,7.11
2023-01-17T09:43:31.621Z,7.67
2023-01-17T09:46:02.230Z,8.18
2023-01-17T09:48:37.713Z,8.70
2023-01-17T09:51:10.903Z,9.21
2023-01-17T09:53:43.982Z,9.67
2023-01-17T09:56:17.489Z,10.02
2023-01-17T09:58:53.445Z,10.37
2023-01-17T10:01:31.778Z,10.66
2023-01-17T10:04:21.291Z,10.92
2023-01-17T10:07:04.004Z,11.21
2023-01-17T10:09:48.983Z,11.62
2023-01-17T10:12:26.051Z,12.00
2023-01-17T10:15:19.795Z,12.41
2023-01-17T10:17:56.690Z,12.75
2023-01-17T10:20:43.340Z,12.77
2023-01-17T10:23:28.345Z,13.14
2023-01-17T10:26:00.630Z,13.51
2023-01-17T10:28:35.665Z,13.77
2023-01-17T10:31:08.316Z,13.85
2023-01-17T10:33:42.374Z,13.88
2023-01-17T10:36:16.533Z,13.92
2023-01-17T10:38:49.910Z,13.99
2023-01-17T10:41:25.525Z,13.98
2023-01-17T10:44:07.351Z,13.97
2023-01-17T10:46:42.529Z,13.92
2023-01-17T10:49:17.791Z,13.99
2023-01-17T10:52:00.147Z,14.06
2023-01-17T10:54:41.407Z,14.12
2023-01-17T10:57:16.378Z,14.16
2023-01-17T10:59:46.749Z,14.09
2023-01-17T11:02:22.874Z,14.01
2023-01-17T11:04:55.717Z,14.06
2023-01-17T11:07:27.311Z,14.14
2023-01-17T11:09:59.333Z,14.31
2023-01-17T11:12:33.673Z,14.50
2023-01-17T11:15:07.587Z,14.60
2023-01-17T11:17:39.655Z,14.54
2023-01-17T11:20:15.128Z,14.13
2023-01-17T11:22:49.971Z,13.57
2023-01-17T11:25:24.021Z,13.66
2023-01-17T11:28:06.384Z,13.20
2023-01-17T11:30:36.830Z,11.87
2023-01-17T11:33:11.613Z,10.35
2023-01-17T11:35:46.384Z,9.64
2023-01-17T11:38:19.873Z,9.73
2023-01-17T11:40:51.421Z,10.68
2023-01-17T11:43:24.112Z,11.54
2023-01-17T11:46:15.253Z,12.38
2023-01-17T11:48:50.541Z,13.20
2023-01-17T11:51:24.016Z,13.73
2023-01-17T11:53:56.041Z,14.07
2023-01-17T11:56:32.910Z,14.42
2023-01-17T11:59:27.262Z,14.61
2023-01-17T12:02:06.057Z,13.20
2023-01-17T12:04:41.015Z,12.88
2023-01-17T12:07:19.525Z,12.21
2023-01-17T12:09:58.048Z,11.88
2023-01-17T12:12:55.501Z,12.68
2023-01-17T12:15:35.054Z,13.29
2023-01-17T12:18:19.432Z,13.31
2023-01-17T12:20:56.486Z,12.04
2023-01-17T12:23:40.451Z,10.57
2023-01-17T12:26:23.878Z,9.49
2023-01-17T12:32:29.182Z,7.66
2023-01-17T12:35:03.578Z,6.72
2023-01-17T12:37:37.659Z,6.01
2023-01-17T12:40:17.974Z,5.37
2023-01-17T12:42:52.708Z,4.82
2023-01-17T12:45:26.975Z,4.37
2023-01-17T12:48:01.340Z,4.03
2023-01-17T12:50:35.511Z,3.81
2023-01-17T12:53:17.353Z,3.69
2023-01-17T12:55:52.202Z,4.22
2023-01-17T12:58:24.245Z,4.98
2023-01-17T13:01:00.173Z,5.54
2023-01-17T13:03:36.643Z,5.86
2023-01-17T13:06:09.470Z,5.71
2023-01-17T13:08:43.744Z,5.36
2023-01-17T13:11:19.619Z,4.99
2023-01-17T13:13:51.405Z,4.58
2023-01-17T13:16:28.204Z,4.37
2023-01-17T13:19:04.899Z,4.14
2023-01-17T13:21:36.033Z,3.93
2023-01-17T13:24:31.640Z,3.70
2023-01-17T13:27:23.403Z,3.45
2023-01-17T13:30:02.009Z,3.44
2023-01-17T13:32:49.602Z,3.61
2023-01-17T13:35:25.841Z,3.46
2023-01-17T13:38:22.717Z,3.28
2023-01-17T13:40:55.276Z,3.09
2023-01-17T13:43:27.723Z,2.94
2023-01-17T13:45:59.654Z,2.78
2023-01-17T13:48:37.449Z,2.64
2023-01-17T13:51:08.138Z,2.52
2023-01-17T13:53:49.695Z,2.43
2023-01-17T13:56:29.045Z,2.33
2023-01-17T13:59:06.736Z,2.24
2023-01-17T14:01:56.929Z,2.12
2023-01-17T14:04:53.441Z,2.01
2023-01-17T14:07:27.483Z,1.91
2023-01-17T14:09:57.865Z,1.84
2023-01-17T14:12:34.836Z,1.80
2023-01-17T14:15:06.829Z,1.76
2023-01-17T14:17:52.699Z,1.70
2023-01-17T14:20:53.045Z,1.65
2023-01-17T14:23:37.816Z,1.59
2023-01-17T14:26:30.216Z,1.54
2023-01-17T14:29:21.789Z,1.47
2023-01-17T14:31:52.278Z,1.40
2023-01-17T14:34:24.170Z,1.28
2023-01-17T14:37:03.439Z,1.30
2023-01-17T14:39:43.668Z,1.24
2023-01-17T14:42:17.103Z,1.18
2023-01-17T14:44:51.915Z,1.10
2023-01-17T14:47:22.801Z,1.07
2023-01-17T14:50:11.943Z,1.01
2023-01-17T14:52:42.302Z,0.94
2023-01-17T14:55:18.806Z,0.87
2023-01-17T14:57:56.852Z,0.80
2023-01-17T15:00:33.556Z,0.74
2023-01-17T15:03:03.888Z,0.69
2023-01-17T15:05:34.895Z,0.63
2023-01-17T15:08:05.517Z,0.57
2023-01-17T15:10:36.034Z,0.51
2023-01-17T15:13:11.019Z,0.47
2023-01-17T15:15:42.286Z,0.42
2023-01-17T15:18:26.447Z,0.35
2023-01-17T15:21:02.848Z,0.27
2023-01-17T15:23:35.422Z,0.27
2023-01-17T15:26:07.155Z,0.26
2023-01-17T15:28:37.745Z,0.19
2023-01-17T15:31:14.266Z,0.11
2023-01-17T15:33:47.104Z,0.04
2023-01-17T15:36:28.808Z,-0.06
2023-01-17T15:39:01.430Z,-0.16
2023-01-17T15:41:34.289Z,-0.26
2023-01-17T15:44:05.142Z,-0.37
2023-01-17T15:46:43.746Z,-0.48
2023-01-17T15:49:20.535Z,-0.59
2023-01-17T15:51:55.768Z,-0.72
2023-01-17T15:54:50.517Z,-0.84
2023-01-17T15:57:26.915Z,-0.97
2023-01-17T16:00:00.485Z,-1.07
2023-01-17T16:02:45.275Z,-1.16
2023-01-17T16:05:44.594Z,-1.23
2023-01-17T16:08:39.407Z,-1.30
2023-01-17T16:11:11.524Z,-1.31
2023-01-17T16:13:43.607Z,-1.31
2023-01-17T16:16:17.202Z,-1.31
2023-01-17T16:18:48.551Z,-1.33
2023-01-17T16:21:24.599Z,-1.36
2023-01-17T16:23:55.586Z,-1.40
2023-01-17T16:26:26.128Z,-1.45
2023-01-17T16:28:56.554Z,-1.50
2023-01-17T16:31:26.951Z,-1.53
2023-01-17T16:33:57.437Z,-1.57
2023-01-17T16:36:27.997Z,-1.61
2023-01-17T16:38:58.333Z,-1.65
2023-01-17T16:41:28.716Z,-1.69
2023-01-17T16:44:01.538Z,-1.81
2023-01-17T16:46:32.116Z,-1.78
2023-01-17T16:49:02.997Z,-1.82
2023-01-17T16:51:34.480Z,-1.85
2023-01-17T16:54:04.977Z,-1.88
2023-01-17T16:56:35.381Z,-1.87
2023-01-17T16:59:05.712Z,-1.83
2023-01-17T17:01:36.147Z,-1.78
2023-01-17T17:04:06.721Z,-1.75
2023-01-17T17:06:37.028Z,-1.74
2023-01-17T17:09:07.321Z,-1.74
2023-01-17T17:11:37.702Z,-1.75
2023-01-17T17:14:08.177Z,-1.75
2023-01-17T17:16:38.981Z,-1.77
2023-01-17T17:19:09.522Z,-1.79
2023-01-17T17:21:40.072Z,-1.79
2023-01-17T17:24:14.093Z,-1.81
2023-01-17T17:26:45.009Z,-1.88
2023-01-17T17:29:15.720Z,-1.86
2023-01-17T17:31:46.098Z,-1.86
2023-01-17T17:34:17.064Z,-1.87
2023-01-17T17:36:47.719Z,-1.88
2023-01-17T17:39:18.049Z,-1.88
2023-01-17T17:41:48.385Z,-1.87
2023-01-17T17:44:18.792Z,-1.83
2023-01-17T17:46:51.367Z,-1.78
2023-01-17T17:49:22.641Z,-1.75
2023-01-17T17:51:52.890Z,-1.74
2023-01-17T17:54:24.634Z,-1.72
2023-01-17T17:56:55.760Z,-1.71
2023-01-17T17:59:26.134Z,-1.71
2023-01-17T18:01:57.061Z,-1.72
2023-01-17T18:04:28.035Z,-1.72
2023-01-17T18:06:59.301Z,-1.74
2023-01-17T18:09:29.672Z,-1.74
2023-01-17T18:12:00.278Z,-1.75
2023-01-17T18:14:30.679Z,-1.76
2023-01-17T18:17:01.020Z,-1.87
2023-01-17T18:19:31.445Z,-1.79
2023-01-17T18:22:03.416Z,-1.80
2023-01-17T18:24:34.129Z,-1.80
2023-01-17T18:27:04.638Z,-1.79
2023-01-17T18:29:35.045Z,-1.85
2023-01-17T18:32:05.639Z,-1.77
2023-01-17T18:34:41.287Z,-1.71
2023-01-17T18:37:12.893Z,-1.65
2023-01-17T18:39:43.710Z,-1.63
2023-01-17T18:42:14.169Z,-1.63
2023-01-17T18:44:44.860Z,-1.64
2023-01-17T18:47:15.234Z,-1.65
2023-01-17T18:49:45.773Z,-1.65
2023-01-17T18:52:17.457Z,-1.64
2023-01-17T18:54:48.075Z,-1.61
2023-01-17T18:57:18.486Z,-1.60
2023-01-17T18:59:48.765Z,-1.62
2023-01-17T19:02:19.887Z,-1.58
2023-01-17T19:04:50.479Z,-1.54
2023-01-17T19:07:21.789Z,-1.53
2023-01-17T19:09:52.467Z,-1.52
2023-01-17T19:12:22.810Z,-1.52
2023-01-17T19:14:53.259Z,-1.53
2023-01-17T19:17:23.752Z,-1.55
2023-01-17T19:19:56.550Z,-1.57
2023-01-17T19:22:27.737Z,-1.57
2023-01-17T19:25:00.264Z,-1.56
2023-01-17T19:27:30.707Z,-1.52
2023-01-17T19:30:01.246Z,-1.46
2023-01-17T19:32:31.590Z,-1.42
2023-01-17T19:35:01.879Z,-1.46
2023-01-17T19:37:32.231Z,-1.40
2023-01-17T19:40:02.720Z,-1.40
2023-01-17T19:42:33.268Z,-1.39
2023-01-17T19:45:03.674Z,-1.40
2023-01-17T19:47:34.056Z,-1.42
2023-01-17T19:50:08.206Z,-1.44
2023-01-17T19:52:38.905Z,-1.46
2023-01-17T19:55:11.060Z,-1.45
2023-01-17T19:57:41.433Z,-1.47
2023-01-17T20:00:17.831Z,-1.49
2023-01-17T20:02:48.359Z,-1.51
2023-01-17T20:05:19.601Z,-1.52
2023-01-17T20:07:49.983Z,-1.52
2023-01-17T20:10:20.967Z,-1.50
2023-01-17T20:12:51.389Z,-1.47
2023-01-17T20:15:23.908Z,-1.35
2023-01-17T20:17:54.957Z,-1.28
2023-01-17T20:20:26.121Z,-1.22
2023-01-17T20:22:56.631Z,-1.17
2023-01-17T20:25:26.983Z,-1.12
2023-01-17T20:27:57.664Z,-1.08
2023-01-17T20:30:30.468Z,-1.03
2023-01-17T20:33:01.471Z,-1.00
2023-01-17T20:35:34.537Z,-0.97
2023-01-17T20:38:03.445Z,-0.96
2023-01-17T20:40:33.832Z,-0.95
2023-01-17T20:43:04.208Z,-0.94
2023-01-17T20:45:34.596Z,-0.93
2023-01-17T20:48:05.758Z,-0.91
2023-01-17T20:50:36.851Z,-0.89
2023-01-17T20:53:07.137Z,-0.93
2023-01-17T20:55:39.776Z,-0.83
2023-01-17T20:58:10.069Z,-0.75
2023-01-17T21:00:40.955Z,-0.67
2023-01-17T21:03:11.399Z,-0.61
2023-01-17T21:05:41.711Z,-0.56
2023-01-17T21:08:17.152Z,-0.54
2023-01-17T21:10:49.706Z,-0.53
2023-01-17T21:13:20.492Z,-0.54
2023-01-17T21:15:51.929Z,-0.56
2023-01-17T21:18:23.644Z,-0.58
2023-01-17T21:20:54.113Z,-0.60
2023-01-17T21:23:29.043Z,-0.63
2023-01-17T21:25:59.865Z,-0.65
2023-01-17T21:28:31.722Z,-0.66
2023-01-17T21:31:02.256Z,-0.69
2023-01-17T21:33:32.655Z,-0.70
2023-01-17T21:36:10.349Z,-0.71
2023-01-17T21:38:40.724Z,-0.71
2023-01-17T21:41:11.400Z,-0.71
2023-01-17T21:43:41.767Z,-0.70
2023-01-17T21:46:12.415Z,-0.65
2023-01-17T21:48:44.450Z,-0.61
2023-01-17T21:51:14.891Z,-0.60
2023-01-17T21:53:45.481Z,-0.61
2023-01-17T21:56:33.691Z,-0.64
2023-01-17T21:59:04.309Z,-0.73
2023-01-17T22:01:35.575Z,-0.73
2023-01-17T22:04:06.510Z,-0.77
2023-01-17T22:06:38.565Z,-0.81
2023-01-17T22:09:09.271Z,-0.86
2023-01-17T22:11:39.717Z,-0.90
2023-01-17T22:14:10.172Z,-0.93
2023-01-17T22:16:41.081Z,-0.96
2023-01-17T22:19:11.436Z,-1.00
2023-01-17T22:21:43.753Z,-1.02
2023-01-17T22:24:16.593Z,-1.03
2023-01-17T22:26:47.317Z,-1.01
2023-01-17T22:29:18.856Z,-0.95
2023-01-17T22:31:49.324Z,-0.90
2023-01-17T22:34:20.911Z,-0.88
2023-01-17T22:36:51.286Z,-0.88
2023-01-17T22:39:21.665Z,-0.87
2023-01-17T22:41:52.032Z,-0.87
2023-01-17T22:44:22.500Z,-0.87
2023-01-17T22:46:52.999Z,-0.86
2023-01-17T22:49:24.379Z,-0.88
2023-01-17T22:51:54.759Z,-0.91
2023-01-17T22:54:25.175Z,-0.94
2023-01-17T22:56:55.537Z,-0.98
2023-01-17T22:59:25.815Z,-1.01
2023-01-17T23:01:56.151Z,-1.03
2023-01-17T23:04:28.154Z,-1.04
2023-01-17T23:06:58.469Z,-1.07
2023-01-17T23:09:28.990Z,-1.09
2023-01-17T23:11:59.396Z,-1.09
2023-01-17T23:14:52.489Z,-1.07
2023-01-17T23:17:41.474Z,-1.07
2023-01-17T23:20:14.819Z,-1.00
2023-01-17T23:22:45.436Z,-0.98
2023-01-17T23:25:17.232Z,-0.96
2023-01-17T23:28:07.074Z,-0.97
2023-01-17T23:30:41.460Z,-0.98
2023-01-17T23:33:15.473Z,-0.99
2023-01-17T23:35:48.052Z,-1.00
2023-01-17T23:38:34.497Z,-1.00
2023-01-17T23:41:26.377Z,-1.01
2023-01-17T23:43:59.510Z,-1.01
2023-01-17T23:46:31.316Z,-0.97
2023-01-17T23:49:02.516Z,-0.93
2023-01-17T23:51:33.808Z,-0.92
2023-01-17T23:54:06.514Z,-0.97
2023-01-17T23:56:36.972Z,-0.96
2023-01-17T23:59:09.553Z,-0.98
